sensor_id;sensor_type;location;lat;lon;timestamp;P1;durP1;ratioP1;P2;durP2;ratioP2
12459;SDS011;6295;49.452;8.466;2023-08-30T03:13:39;6.53;;;5.93;;
12459;SDS011;6295;49.452;8.466;2023-08-30T03:17:42;6.53;;;5.83;;
12459;SDS011;6295;49.452;8.466;2023-08-30T03:21:44;6.77;;;6.17;;
12459;SDS011;6295;49.452;8.466;2023-08-30T03:25:46;6.80;;;6.23;;
12459;SDS011;6295;49.452;8.466;2023-08-30T03:29:50;7.47;;;6.67;;
12459;SDS011;6295;49.452;8.466;2023-08-30T03:33:52;7.13;;;6.53;;
12459;SDS011;6295;49.452;8.466;2023-08-30T03:37:54;6.83;;;6.23;;
12459;SDS011;6295;49.452;8.466;2023-08-30T03:41:57;6.90;;;6.30;;
12459;SDS011;6295;49.452;8.466;2023-08-30T03:46:00;7.63;;;6.93;;
12459;SDS011;6295;49.452;8.466;2023-08-30T03:50:03;7.50;;;6.70;;
12459;SDS011;6295;49.452;8.466;2023-08-30T03:54:06;6.63;;;6.13;;
12459;SDS011;6295;49.452;8.466;2023-08-30T03:58:08;7.30;;;6.70;;
12459;SDS011;6295;49.452;8.466;2023-08-30T04:02:12;7.43;;;6.73;;
12459;SDS011;6295;49.452;8.466;2023-08-30T04:06:14;7.07;;;6.47;;
12459;SDS011;6295;49.452;8.466;2023-08-30T04:10:17;7.00;;;6.40;;
12459;SDS011;6295;49.452;8.466;2023-08-30T04:14:21;6.80;;;6.20;;
12459;SDS011;6295;49.452;8.466;2023-08-30T04:18:24;6.77;;;6.10;;
12459;SDS011;6295;49.452;8.466;2023-08-30T04:22:26;6.60;;;6.10;;
12459;SDS011;6295;49.452;8.466;2023-08-30T04:26:29;7.03;;;6.43;;
12459;SDS011;6295;49.452;8.466;2023-08-30T04:30:31;7.57;;;6.87;;
12459;SDS011;6295;49.452;8.466;2023-08-30T04:34:36;7.40;;;6.80;;
12459;SDS011;6295;49.452;8.466;2023-08-30T04:38:38;7.70;;;7.00;;
12459;SDS011;6295;49.452;8.466;2023-08-30T04:42:40;7.50;;;6.80;;
12459;SDS011;6295;49.452;8.466;2023-08-30T04:46:43;7.30;;;6.70;;
12459;SDS011;6295;49.452;8.466;2023-08-30T04:50:47;7.07;;;6.47;;
12459;SDS011;6295;49.452;8.466;2023-08-30T04:54:49;6.77;;;6.17;;
12459;SDS011;6295;49.452;8.466;2023-08-30T04:58:51;7.60;;;6.90;;
12459;SDS011;6295;49.452;8.466;2023-08-30T05:02:55;7.77;;;7.17;;
12459;SDS011;6295;49.452;8.466;2023-08-30T05:07:03;7.90;;;7.20;;
12459;SDS011;6295;49.452;8.466;2023-08-30T05:11:05;7.97;;;7.27;;
12459;SDS011;6295;49.452;8.466;2023-08-30T05:15:08;7.60;;;7.00;;
12459;SDS011;6295;49.452;8.466;2023-08-30T05:19:10;7.50;;;6.80;;
12459;SDS011;6295;49.452;8.466;2023-08-30T05:23:14;7.60;;;7.00;;
12459;SDS011;6295;49.452;8.466;2023-08-30T05:27:16;7.43;;;6.77;;
12459;SDS011;6295;49.452;8.466;2023-08-30T05:31:18;7.43;;;6.83;;
12459;SDS011;6295;49.452;8.466;2023-08-30T05:35:21;7.20;;;6.47;;
12459;SDS011;6295;49.452;8.466;2023-08-30T05:39:24;7.67;;;7.00;;
12459;SDS011;6295;49.452;8.466;2023-08-30T05:43:27;7.90;;;7.07;;
12459;SDS011;6295;49.452;8.466;2023-08-30T05:47:29;7.27;;;6.57;;
12459;SDS011;6295;49.452;8.466;2023-08-30T05:51:32;7.90;;;7.20;;
12459;SDS011;6295;49.452;8.466;2023-08-30T05:55:36;7.50;;;6.80;;
12459;SDS011;6295;49.452;8.466;2023-08-30T05:59:38;7.53;;;6.93;;
12459;SDS011;6295;49.452;8.466;2023-08-30T06:03:41;7.17;;;6.57;;
12459;SDS011;6295;49.452;8.466;2023-08-30T06:07:43;7.53;;;6.90;;
12459;SDS011;6295;49.452;8.466;2023-08-30T06:11:47;7.80;;;7.20;;
12459;SDS011;6295;49.452;8.466;2023-08-30T06:15:50;9.63;;;7.23;;
12459;SDS011;6295;49.452;8.466;2023-08-30T06:19:53;7.40;;;6.80;;
12459;SDS011;6295;49.452;8.466;2023-08-30T06:23:55;8.07;;;7.27;;
12459;SDS011;6295;49.452;8.466;2023-08-30T06:27:59;7.60;;;7.00;;
12459;SDS011;6295;49.452;8.466;2023-08-30T06:32:03;7.77;;;7.17;;
12459;SDS011;6295;49.452;8.466;2023-08-30T06:36:06;7.50;;;6.80;;
12459;SDS011;6295;49.452;8.466;2023-08-30T06:40:11;7.17;;;6.57;;
12459;SDS011;6295;49.452;8.466;2023-08-30T06:44:18;8.20;;;7.20;;
12459;SDS011;6295;49.452;8.466;2023-08-30T06:48:25;7.10;;;6.50;;
12459;SDS011;6295;49.452;8.466;2023-08-30T06:52:28;7.27;;;6.67;;
12459;SDS011;6295;49.452;8.466;2023-08-30T06:56:30;7.57;;;6.93;;
12459;SDS011;6295;49.452;8.466;2023-08-30T07:00:34;7.33;;;6.73;;
12459;SDS011;6295;49.452;8.466;2023-08-30T07:04:36;7.70;;;7.03;;
12459;SDS011;6295;49.452;8.466;2023-08-30T07:08:38;7.40;;;6.77;;
12459;SDS011;6295;49.452;8.466;2023-08-30T07:12:40;7.87;;;7.17;;
12459;SDS011;6295;49.452;8.466;2023-08-30T07:16:47;8.20;;;7.50;;
12459;SDS011;6295;49.452;8.466;2023-08-30T07:20:52;7.90;;;7.10;;
12459;SDS011;6295;49.452;8.466;2023-08-30T07:24:57;8.03;;;7.33;;
12459;SDS011;6295;49.452;8.466;2023-08-30T07:29:03;7.03;;;6.43;;
12459;SDS011;6295;49.452;8.466;2023-08-30T07:33:10;8.10;;;7.40;;
12459;SDS011;6295;49.452;8.466;2023-08-30T07:37:17;7.53;;;6.83;;
12459;SDS011;6295;49.452;8.466;2023-08-30T07:41:20;7.83;;;6.63;;
12459;SDS011;6295;49.452;8.466;2023-08-30T07:45:22;7.47;;;6.77;;
12459;SDS011;6295;49.452;8.466;2023-08-30T07:49:30;7.97;;;7.27;;
12459;SDS011;6295;49.452;8.466;2023-08-30T07:53:35;8.83;;;7.37;;
12459;SDS011;6295;49.452;8.466;2023-08-30T07:57:40;8.90;;;8.10;;
12459;SDS011;6295;49.452;8.466;2023-08-30T08:14:12;7.30;;;6.60;;
12459;SDS011;6295;49.452;8.466;2023-08-30T08:18:14;7.47;;;6.87;;
12459;SDS011;6295;49.452;8.466;2023-08-30T08:22:16;7.80;;;7.10;;
12459;SDS011;6295;49.452;8.466;2023-08-30T08:26:19;6.77;;;6.20;;
12459;SDS011;6295;49.452;8.466;2023-08-30T08:30:25;9.57;;;6.37;;
12459;SDS011;6295;49.452;8.466;2023-08-30T08:34:28;6.83;;;6.33;;
12459;SDS011;6295;49.452;8.466;2023-08-30T08:50:46;10.70;;;7.50;;
12459;SDS011;6295;49.452;8.466;2023-08-30T08:54:50;7.23;;;6.53;;
12459;SDS011;6295;49.452;8.466;2023-08-30T08:58:53;6.30;;;5.80;;
12459;SDS011;6295;49.452;8.466;2023-08-30T09:02:56;6.60;;;6.00;;
12459;SDS011;6295;49.452;8.466;2023-08-30T09:07:00;6.63;;;6.03;;
12459;SDS011;6295;49.452;8.466;2023-08-30T09:11:05;6.57;;;5.97;;
12459;SDS011;6295;49.452;8.466;2023-08-30T09:15:08;6.97;;;6.37;;
12459;SDS011;6295;49.452;8.466;2023-08-30T09:19:11;6.17;;;5.67;;
12459;SDS011;6295;49.452;8.466;2023-08-30T09:23:18;6.23;;;5.20;;
12459;SDS011;6295;49.452;8.466;2023-08-30T09:27:20;5.77;;;5.27;;
12459;SDS011;6295;49.452;8.466;2023-08-30T09:31:22;6.03;;;5.10;;
12459;SDS011;6295;49.452;8.466;2023-08-30T09:35:26;5.57;;;5.07;;
12459;SDS011;6295;49.452;8.466;2023-08-30T09:39:30;5.60;;;5.10;;
12459;SDS011;6295;49.452;8.466;2023-08-30T09:43:35;5.60;;;5.10;;
12459;SDS011;6295;49.452;8.466;2023-08-30T09:47:49;5.30;;;4.80;;
12459;SDS011;6295;49.452;8.466;2023-08-30T09:51:52;5.50;;;5.10;;
12459;SDS011;6295;49.452;8.466;2023-08-30T09:56:00;5.63;;;5.00;;
12459;SDS011;6295;49.452;8.466;2023-08-30T10:00:06;5.40;;;4.90;;
12459;SDS011;6295;49.452;8.466;2023-08-30T10:04:12;5.67;;;5.17;;
12459;SDS011;6295;49.452;8.466;2023-08-30T10:08:16;4.83;;;4.43;;
12459;SDS011;6295;49.452;8.466;2023-08-30T10:12:22;5.47;;;5.07;;
12459;SDS011;6295;49.452;8.466;2023-08-30T10:16:25;6.07;;;5.47;;
12459;SDS011;6295;49.452;8.466;2023-08-30T10:20:29;5.93;;;5.33;;
12459;SDS011;6295;49.452;8.466;2023-08-30T10:24:36;6.57;;;5.03;;
12459;SDS011;6295;49.452;8.466;2023-08-30T10:28:41;5.80;;;5.27;;
12459;SDS011;6295;49.452;8.466;2023-08-30T10:32:44;6.27;;;4.90;;
12459;SDS011;6295;49.452;8.466;2023-08-30T10:36:55;5.23;;;4.77;;
12459;SDS011;6295;49.452;8.466;2023-08-30T10:41:05;5.93;;;5.20;;
12459;SDS011;6295;49.452;8.466;2023-08-30T10:45:10;5.47;;;4.97;;
12459;SDS011;6295;49.452;8.466;2023-08-30T10:49:12;5.13;;;4.63;;
12459;SDS011;6295;49.452;8.466;2023-08-30T10:53:15;5.13;;;4.73;;
12459;SDS011;6295;49.452;8.466;2023-08-30T10:57:18;5.50;;;4.90;;
12459;SDS011;6295;49.452;8.466;2023-08-30T11:01:22;4.87;;;4.47;;
12459;SDS011;6295;49.452;8.466;2023-08-30T11:05:26;4.97;;;4.57;;
12459;SDS011;6295;49.452;8.466;2023-08-30T11:09:28;4.70;;;4.30;;
12459;SDS011;6295;49.452;8.466;2023-08-30T11:13:31;4.57;;;4.17;;
12459;SDS011;6295;49.452;8.466;2023-08-30T11:17:34;5.30;;;4.80;;
12459;SDS011;6295;49.452;8.466;2023-08-30T11:21:37;4.40;;;4.00;;
12459;SDS011;6295;49.452;8.466;2023-08-30T11:25:41;4.80;;;4.40;;
12459;SDS011;6295;49.452;8.466;2023-08-30T11:29:52;4.13;;;3.83;;
12459;SDS011;6295;49.452;8.466;2023-08-30T11:33:56;4.43;;;4.03;;
12459;SDS011;6295;49.452;8.466;2023-08-30T11:37:59;4.33;;;4.03;;
12459;SDS011;6295;49.452;8.466;2023-08-30T11:42:02;3.93;;;3.50;;
12459;SDS011;6295;49.452;8.466;2023-08-30T11:46:07;4.20;;;3.80;;
12459;SDS011;6295;49.452;8.466;2023-08-30T11:50:11;3.63;;;3.37;;
12459;SDS011;6295;49.452;8.466;2023-08-30T11:54:13;3.80;;;3.50;;
12459;SDS011;6295;49.452;8.466;2023-08-30T11:58:17;3.73;;;3.43;;
12459;SDS011;6295;49.452;8.466;2023-08-30T12:02:21;3.30;;;3.00;;
12459;SDS011;6295;49.452;8.466;2023-08-30T12:06:26;3.40;;;3.10;;
12459;SDS011;6295;49.452;8.466;2023-08-30T12:10:29;3.10;;;2.90;;
12459;SDS011;6295;49.452;8.466;2023-08-30T12:14:35;4.13;;;3.43;;
12459;SDS011;6295;49.452;8.466;2023-08-30T12:18:37;3.30;;;3.10;;
12459;SDS011;6295;49.452;8.466;2023-08-30T12:22:41;3.53;;;3.23;;
12459;SDS011;6295;49.452;8.466;2023-08-30T12:26:43;3.30;;;3.00;;
12459;SDS011;6295;49.452;8.466;2023-08-30T12:30:45;3.87;;;2.90;;
12459;SDS011;6295;49.452;8.466;2023-08-30T12:34:47;3.13;;;2.93;;
12459;SDS011;6295;49.452;8.466;2023-08-30T12:38:51;3.03;;;2.50;;
12459;SDS011;6295;49.452;8.466;2023-08-30T12:42:53;2.93;;;2.73;;
12459;SDS011;6295;49.452;8.466;2023-08-30T12:46:55;2.50;;;2.20;;
12459;SDS011;6295;49.452;8.466;2023-08-30T12:50:57;2.63;;;2.40;;
12459;SDS011;6295;49.452;8.466;2023-08-30T12:55:01;3.13;;;2.53;;
12459;SDS011;6295;49.452;8.466;2023-08-30T12:59:04;5.13;;;2.70;;
12459;SDS011;6295;49.452;8.466;2023-08-30T13:03:06;3.77;;;2.77;;
12459;SDS011;6295;49.452;8.466;2023-08-30T13:07:08;4.10;;;2.90;;
12459;SDS011;6295;49.452;8.466;2023-08-30T13:11:12;2.90;;;2.53;;
12459;SDS011;6295;49.452;8.466;2023-08-30T13:15:14;3.37;;;2.50;;
12459;SDS011;6295;49.452;8.466;2023-08-30T13:19:16;2.97;;;2.70;;
12459;SDS011;6295;49.452;8.466;2023-08-30T13:23:19;2.70;;;2.50;;
12459;SDS011;6295;49.452;8.466;2023-08-30T13:27:22;3.63;;;2.50;;
12459;SDS011;6295;49.452;8.466;2023-08-30T13:31:24;6.27;;;3.93;;
12459;SDS011;6295;49.452;8.466;2023-08-30T13:35:26;4.27;;;2.73;;
12459;SDS011;6295;49.452;8.466;2023-08-30T13:39:28;2.70;;;2.50;;
12459;SDS011;6295;49.452;8.466;2023-08-30T13:43:35;2.53;;;2.33;;
12459;SDS011;6295;49.452;8.466;2023-08-30T13:47:41;3.10;;;2.80;;
12459;SDS011;6295;49.452;8.466;2023-08-30T13:51:45;2.73;;;2.40;;
12459;SDS011;6295;49.452;8.466;2023-08-30T13:55:49;6.53;;;3.23;;
12459;SDS011;6295;49.452;8.466;2023-08-30T13:59:53;4.27;;;2.50;;
12459;SDS011;6295;49.452;8.466;2023-08-30T14:03:55;2.77;;;2.40;;
12459;SDS011;6295;49.452;8.466;2023-08-30T14:07:57;3.83;;;2.40;;
12459;SDS011;6295;49.452;8.466;2023-08-30T14:12:00;4.03;;;2.50;;
12459;SDS011;6295;49.452;8.466;2023-08-30T14:16:06;3.30;;;2.70;;
12459;SDS011;6295;49.452;8.466;2023-08-30T14:20:10;5.63;;;2.57;;
12459;SDS011;6295;49.452;8.466;2023-08-30T14:24:12;2.90;;;2.17;;
12459;SDS011;6295;49.452;8.466;2023-08-30T14:28:15;2.40;;;2.20;;
12459;SDS011;6295;49.452;8.466;2023-08-30T14:32:18;2.53;;;2.33;;
12459;SDS011;6295;49.452;8.466;2023-08-30T14:36:20;2.73;;;2.43;;
12459;SDS011;6295;49.452;8.466;2023-08-30T14:40:22;2.83;;;2.53;;
12459;SDS011;6295;49.452;8.466;2023-08-30T14:44:24;2.63;;;2.43;;
12459;SDS011;6295;49.452;8.466;2023-08-30T14:48:29;4.00;;;2.60;;
12459;SDS011;6295;49.452;8.466;2023-08-30T14:52:33;3.00;;;2.60;;
12459;SDS011;6295;49.452;8.466;2023-08-30T14:56:38;3.97;;;2.80;;
12459;SDS011;6295;49.452;8.466;2023-08-30T15:00:42;3.93;;;2.80;;
12459;SDS011;6295;49.452;8.466;2023-08-30T15:04:46;3.10;;;2.80;;
12459;SDS011;6295;49.452;8.466;2023-08-30T15:08:48;3.10;;;2.80;;
12459;SDS011;6295;49.452;8.466;2023-08-30T15:12:50;3.43;;;3.13;;
12459;SDS011;6295;49.452;8.466;2023-08-30T15:16:52;3.73;;;3.20;;
12459;SDS011;6295;49.452;8.466;2023-08-30T15:20:56;4.37;;;3.30;;
12459;SDS011;6295;49.452;8.466;2023-08-30T15:25:00;3.00;;;2.80;;
12459;SDS011;6295;49.452;8.466;2023-08-30T15:29:06;3.37;;;3.00;;
12459;SDS011;6295;49.452;8.466;2023-08-30T15:33:09;3.73;;;2.90;;
12459;SDS011;6295;49.452;8.466;2023-08-30T15:37:13;3.13;;;2.83;;
12459;SDS011;6295;49.452;8.466;2023-08-30T15:41:15;3.43;;;3.07;;
12459;SDS011;6295;49.452;8.466;2023-08-30T15:45:17;3.43;;;2.90;;
12459;SDS011;6295;49.452;8.466;2023-08-30T15:49:19;3.37;;;3.07;;
12459;SDS011;6295;49.452;8.466;2023-08-30T15:53:23;3.53;;;3.23;;
12459;SDS011;6295;49.452;8.466;2023-08-30T15:57:27;3.50;;;3.20;;
12459;SDS011;6295;49.452;8.466;2023-08-30T16:01:31;3.57;;;3.27;;
12459;SDS011;6295;49.452;8.466;2023-08-30T16:05:34;3.53;;;3.23;;
12459;SDS011;6295;49.452;8.466;2023-08-30T16:09:39;3.40;;;2.90;;
12459;SDS011;6295;49.452;8.466;2023-08-30T16:13:41;3.63;;;3.10;;
12459;SDS011;6295;49.452;8.466;2023-08-30T16:17:44;3.80;;;3.40;;
12459;SDS011;6295;49.452;8.466;2023-08-30T16:21:46;3.20;;;2.90;;
12459;SDS011;6295;49.452;8.466;2023-08-30T16:25:57;3.47;;;3.17;;
12459;SDS011;6295;49.452;8.466;2023-08-30T16:29:59;3.53;;;3.17;;
12459;SDS011;6295;49.452;8.466;2023-08-30T16:34:03;3.20;;;2.87;;
12459;SDS011;6295;49.452;8.466;2023-08-30T16:38:05;3.40;;;3.10;;
12459;SDS011;6295;49.452;8.466;2023-08-30T16:42:08;3.90;;;3.27;;
12459;SDS011;6295;49.452;8.466;2023-08-30T16:46:10;4.40;;;3.13;;
12459;SDS011;6295;49.452;8.466;2023-08-30T16:50:12;3.53;;;3.00;;
12459;SDS011;6295;49.452;8.466;2023-08-30T16:54:15;3.47;;;3.17;;
12459;SDS011;6295;49.452;8.466;2023-08-30T16:58:19;3.67;;;3.30;;
12459;SDS011;6295;49.452;8.466;2023-08-30T17:02:21;3.77;;;3.20;;
12459;SDS011;6295;49.452;8.466;2023-08-30T17:06:23;4.00;;;3.00;;
12459;SDS011;6295;49.452;8.466;2023-08-30T17:10:26;3.97;;;3.20;;
12459;SDS011;6295;49.452;8.466;2023-08-30T17:14:30;5.77;;;3.07;;
12459;SDS011;6295;49.452;8.466;2023-08-30T17:18:32;3.53;;;3.23;;
12459;SDS011;6295;49.452;8.466;2023-08-30T17:22:36;4.60;;;3.10;;
12459;SDS011;6295;49.452;8.466;2023-08-30T17:26:39;3.67;;;2.93;;
12459;SDS011;6295;49.452;8.466;2023-08-30T17:30:43;3.40;;;3.10;;
12459;SDS011;6295;49.452;8.466;2023-08-30T17:34:45;3.47;;;3.17;;
12459;SDS011;6295;49.452;8.466;2023-08-30T17:38:48;3.60;;;3.10;;
12459;SDS011;6295;49.452;8.466;2023-08-30T17:42:51;3.60;;;3.20;;
12459;SDS011;6295;49.452;8.466;2023-08-30T17:46:58;3.63;;;3.00;;
12459;SDS011;6295;49.452;8.466;2023-08-30T17:51:00;5.10;;;3.50;;
12459;SDS011;6295;49.452;8.466;2023-08-30T17:55:04;4.13;;;3.10;;
12459;SDS011;6295;49.452;8.466;2023-08-30T17:59:07;4.50;;;3.30;;
12459;SDS011;6295;49.452;8.466;2023-08-30T18:03:11;4.00;;;3.47;;
12459;SDS011;6295;49.452;8.466;2023-08-30T18:07:13;5.83;;;3.40;;
12459;SDS011;6295;49.452;8.466;2023-08-30T18:11:16;4.10;;;2.07;;
12459;SDS011;6295;49.452;8.466;2023-08-30T18:15:19;2.07;;;1.30;;
12459;SDS011;6295;49.452;8.466;2023-08-30T18:19:23;2.37;;;1.40;;
12459;SDS011;6295;49.452;8.466;2023-08-30T18:23:25;3.13;;;1.50;;
12459;SDS011;6295;49.452;8.466;2023-08-30T18:27:27;2.33;;;1.30;;
12459;SDS011;6295;49.452;8.466;2023-08-30T18:31:30;3.43;;;1.60;;
12459;SDS011;6295;49.452;8.466;2023-08-30T18:35:34;2.53;;;1.40;;
12459;SDS011;6295;49.452;8.466;2023-08-30T18:39:37;2.90;;;1.80;;
12459;SDS011;6295;49.452;8.466;2023-08-30T18:43:40;2.37;;;1.60;;
12459;SDS011;6295;49.452;8.466;2023-08-30T18:47:44;1.60;;;1.50;;
12459;SDS011;6295;49.452;8.466;2023-08-30T18:51:48;4.33;;;1.80;;
